Guilden Sutton, United Kingdom
Current Conditions -  °F | °C
As of 1:50 PM on Sunday 25 Jan 2015 (Local Time) from EGNR Reporting Station
Scattered Clouds Scattered Clouds  
Wind Chill: 54°   Ceiling: Unl
Heat Index: 54°   Visibility: 6mi
Dew Point: 46°   Wind: 9mph
Humidity: 77%   Direction: 240°WSW
Pressure: 30.27"   Gusts: 24mph
Location:  53.21°N, 2.83°W
Report Text: EGNR 251350Z 24008G21KT 180V300 9999 FEW012 SCT022 12/08 Q1025
Loading
Personal Weather Stations






























Interactive Weather Map New forecast layout! Learn more

10-Day Weather Forecast

Advertisements
Track Severe Weather on mobile